NCAR-RAP Real-Time Weather Data

Output produced by METARs form (16 November 2018  18:13 UTC)
found at http://weather.rap.ucar.edu/surface/
 
Conditions at: KTYQ observed 16 November 2018  17:55 UTC
Temperature: 1.2°C (34°F)
Dewpoint: 0.2°C (32°F) [RH = 93%]
Pressure (altimeter): 30.00 inches Hg (1016.0 mb)
Winds: from the WSW (250 degrees) at 10 MPH (9 knots; 4.7 m/s)
Visibility: 7 miles (11 km)
Ceiling: 1100 feet AGL
Clouds: broken clouds at 1100 feet AGL
overcast cloud deck at 2000 feet AGL
Present Weather: automated observation with no human augmentation;
there may or may not be significant weather present at this time
KTYQ 161755Z AUTO 25009KT 7SM BKN011 OVC020 01/00 A3000 RMK AO2 T00120002 10012 21020